This is the latest recevied weather packets stored in our database for station/object W6KRP-12. If no packets are shown the sender has not sent any weather packets the latest 10 day(s).
| Time | Temp. | Humidity | Pressure | Rain* | Wind** | Luminosity | Snow |
|---|---|---|---|---|---|---|---|
| 1777755606 | 13.89° C | 96% | 1008.1 hPa | 0.51 mm | - | - | - |
| 1777750806 | 13.89° C | 94% | 1008.3 hPa | 1.02 mm | - | - | - |
| 1777744806 | 13.89° C | 96% | 1008.5 hPa | 1.27 mm | - | - | - |
| 1777741806 | 14.44° C | 95% | 1008.5 hPa | 1.02 mm | - | - | - |
| 1777734006 | 15.56° C | 97% | 1009 hPa | 2.54 mm | - | - | - |
| 1777726806 | 15.56° C | 95% | 1008.3 hPa | 0 mm | - | - | - |
| 1777725006 | 15.56° C | 97% | 1007.6 hPa | 0.25 mm | - | - | - |
| 1777709406 | 15.56° C | 93% | 1008.6 hPa | 1.02 mm | - | - | - |
| 1777708206 | 15.56° C | 91% | 1008.5 hPa | 0 mm | - | - | - |
| 1777707006 | 15.56° C | 91% | 1008 hPa | 0 mm | - | - | - |
| 1777703406 | 15.56° C | 91% | 1008.7 hPa | 0 mm | - | - | - |
| 1777698606 | 15.56° C | 90% | 1009.1 hPa | 0 mm | - | - | - |
| 1777698006 | 15.56° C | 90% | 1009.2 hPa | 0 mm | - | - | - |
| 1777695606 | 16.11° C | 87% | 1009.5 hPa | 0 mm | - | - | - |
| 1777693807 | 16.11° C | 85% | 1009.7 hPa | 0 mm | - | - | - |
| 1777690807 | 16.67° C | 83% | 1010 hPa | 0 mm | - | - | - |
| 1777685406 | 17.78° C | 81% | 1010 hPa | 0 mm | - | - | - |
| 1777684807 | 17.78° C | 81% | 1009.9 hPa | 0 mm | - | - | - |
| 1777680606 | 18.33° C | 79% | 1009.5 hPa | 0 mm | - | - | - |
| 1777673406 | 20.56° C | 72% | 1009.6 hPa | 0 mm | - | - | - |
| 1777657206 | 18.89° C | 63% | 1011.5 hPa | 0 mm | - | - | - |
| 1777653006 | 18.33° C | 59% | 1012 hPa | 0 mm | - | - | - |
| 1777651806 | 18.89° C | 59% | 1011.9 hPa | 0 mm | - | - | - |
| 1777649406 | 17.78° C | 56% | 1012.2 hPa | 0 mm | - | - | - |
| 1777637406 | 15.56° C | 65% | 1011.6 hPa | 0 mm | - | - | - |
* Rain latest hour (hover to see other rain measurements)
** Current wind speed in m/s (hover to see current wind gust speed)